createdAt,value
2019-02-18T00:05:07.662Z,2.90
2019-02-18T00:10:36.955Z,4.87
2019-02-18T00:16:06.302Z,2.60
2019-02-18T00:21:35.553Z,2.93
2019-02-18T00:27:04.896Z,4.40
2019-02-18T00:32:34.155Z,1.90
2019-02-18T00:38:03.448Z,1.90
2019-02-18T00:43:32.710Z,2.97
2019-02-18T00:49:01.984Z,2.07
2019-02-18T00:54:31.265Z,4.10
2019-02-18T01:00:00.527Z,3.60
2019-02-18T01:05:29.773Z,3.70
2019-02-18T01:10:59.446Z,4.13
2019-02-18T01:16:28.909Z,4.20
2019-02-18T01:21:58.449Z,2.33
2019-02-18T01:27:27.694Z,3.37
2019-02-18T01:32:56.965Z,2.00
2019-02-18T01:38:26.227Z,2.80
2019-02-18T01:43:55.509Z,4.90
2019-02-18T01:49:25.161Z,3.13
2019-02-18T01:54:54.425Z,7.17
2019-02-18T02:00:23.693Z,2.10
2019-02-18T02:05:52.970Z,2.10
2019-02-18T02:11:22.314Z,2.33
2019-02-18T02:16:51.655Z,3.83
2019-02-18T02:22:20.988Z,2.57
2019-02-18T02:27:50.285Z,4.83
2019-02-18T02:33:19.596Z,2.83
2019-02-18T02:38:48.863Z,2.20
2019-02-18T02:44:18.148Z,3.83
2019-02-18T02:49:47.457Z,4.93
2019-02-18T02:55:16.806Z,1.90
2019-02-18T03:00:46.081Z,1.47
2019-02-18T03:06:15.355Z,2.47
2019-02-18T03:11:44.629Z,2.00
2019-02-18T03:17:13.948Z,5.33
2019-02-18T03:22:43.164Z,2.33
2019-02-18T03:28:19.725Z,1.90
2019-02-18T03:33:56.282Z,2.57
2019-02-18T03:39:25.706Z,3.77
2019-02-18T03:44:54.968Z,1.90
2019-02-18T03:50:24.262Z,2.83
2019-02-18T03:55:53.524Z,2.63
2019-02-18T04:01:22.806Z,2.57
2019-02-18T04:06:52.086Z,2.10
2019-02-18T04:12:21.354Z,2.07
2019-02-18T04:17:50.631Z,3.50
2019-02-18T04:23:20.109Z,5.20
2019-02-18T04:28:49.385Z,3.70
2019-02-18T04:34:18.662Z,2.77
2019-02-18T04:39:47.925Z,4.37
2019-02-18T04:45:17.220Z,3.47
2019-02-18T04:50:46.513Z,5.60
2019-02-18T04:56:15.846Z,3.73
2019-02-18T05:01:45.132Z,3.53
2019-02-18T05:07:14.493Z,4.03
2019-02-18T05:12:43.755Z,2.83
2019-02-18T05:18:13.995Z,6.13
2019-02-18T05:23:46.836Z,2.53
2019-02-18T05:29:16.117Z,7.13
2019-02-18T05:34:45.394Z,3.30
2019-02-18T05:40:14.843Z,2.93
2019-02-18T05:45:44.119Z,2.67
2019-02-18T05:51:13.397Z,3.00
2019-02-18T05:56:42.696Z,2.00
2019-02-18T06:02:11.960Z,3.80
2019-02-18T06:07:41.273Z,3.57
2019-02-18T06:13:10.511Z,2.80
2019-02-18T06:18:39.788Z,3.80
2019-02-18T06:24:09.060Z,2.27
2019-02-18T06:29:38.332Z,3.90
2019-02-18T06:35:08.151Z,5.97
2019-02-18T06:40:37.417Z,4.03
2019-02-18T06:46:08.344Z,4.00
2019-02-18T06:51:37.617Z,5.80
2019-02-18T06:57:26.736Z,20.87
2019-02-18T07:03:06.169Z,7.20
2019-02-18T07:08:39.857Z,6.80
2019-02-18T07:14:09.135Z,12.17
2019-02-18T07:19:38.409Z,7.70
2019-02-18T07:25:09.616Z,7.10
2019-02-18T07:30:38.980Z,9.70
2019-02-18T07:36:08.257Z,4.30
2019-02-18T07:41:37.510Z,5.90
2019-02-18T07:47:06.773Z,13.40
2019-02-18T07:52:36.047Z,5.73
2019-02-18T07:58:06.243Z,6.27
2019-02-18T08:03:35.507Z,4.67
2019-02-18T08:09:06.181Z,6.13
2019-02-18T08:14:35.442Z,5.37
2019-02-18T08:20:08.524Z,7.53
2019-02-18T08:25:37.785Z,7.20
2019-02-18T08:31:07.118Z,5.70
2019-02-18T08:36:36.383Z,6.93
2019-02-18T08:42:05.648Z,5.33
2019-02-18T08:47:34.913Z,5.10
2019-02-18T08:53:04.251Z,5.83
2019-02-18T08:58:33.520Z,3.53
2019-02-18T09:04:02.797Z,6.67
2019-02-18T09:09:32.067Z,4.43
2019-02-18T09:15:01.338Z,7.23
2019-02-18T09:20:30.600Z,3.73
2019-02-18T09:25:59.928Z,4.27
2019-02-18T09:31:29.467Z,3.50
2019-02-18T09:36:58.725Z,7.67
2019-02-18T09:42:27.990Z,5.70
2019-02-18T09:47:57.594Z,5.17
2019-02-18T09:53:26.859Z,3.37
2019-02-18T09:58:56.134Z,6.53
2019-02-18T10:04:25.420Z,4.33
2019-02-18T10:09:54.706Z,5.93
2019-02-18T10:15:23.985Z,14.13
2019-02-18T10:20:53.245Z,7.60
2019-02-18T10:26:22.527Z,8.50
2019-02-18T10:31:51.793Z,4.13
2019-02-18T10:37:21.071Z,2.60
2019-02-18T10:42:50.362Z,5.70
2019-02-18T10:48:19.639Z,4.50
2019-02-18T10:53:48.908Z,8.93
2019-02-18T10:59:18.190Z,5.63
2019-02-18T11:04:47.479Z,9.67
2019-02-18T11:10:17.987Z,6.33
2019-02-18T11:15:47.284Z,10.43
2019-02-18T11:21:16.563Z,12.27
2019-02-18T11:26:45.841Z,4.10
2019-02-18T11:32:15.113Z,9.27
2019-02-18T11:37:46.485Z,10.30
2019-02-18T11:43:15.785Z,13.93
2019-02-18T11:48:45.068Z,8.13
2019-02-18T11:54:14.770Z,11.93
2019-02-18T11:59:45.068Z,12.67
2019-02-18T12:05:14.670Z,11.83
2019-02-18T12:10:44.015Z,9.93
2019-02-18T12:16:17.302Z,10.17
2019-02-18T12:21:46.590Z,13.93
2019-02-18T12:27:16.320Z,10.30
2019-02-18T12:32:45.600Z,6.43
2019-02-18T12:38:17.256Z,15.23
2019-02-18T12:43:45.920Z,7.80
2019-02-18T12:49:15.197Z,5.17
2019-02-18T12:54:44.869Z,7.93
2019-02-18T13:00:15.572Z,6.90
2019-02-18T13:05:44.958Z,6.30
2019-02-18T13:11:14.306Z,3.53
2019-02-18T13:16:45.511Z,7.33
2019-02-18T13:22:14.785Z,7.53
2019-02-18T13:27:48.964Z,1.67
2019-02-18T13:33:18.233Z,3.37
2019-02-18T13:38:47.579Z,2.20
2019-02-18T13:44:16.932Z,4.73
2019-02-18T13:49:46.208Z,2.83
2019-02-18T13:55:15.559Z,6.20
2019-02-18T14:00:45.015Z,2.63
2019-02-18T14:06:14.315Z,4.57
2019-02-18T14:11:43.599Z,4.13
2019-02-18T14:17:12.864Z,4.50
2019-02-18T14:22:42.143Z,4.77
2019-02-18T14:28:11.706Z,5.33
2019-02-18T14:33:40.992Z,9.03
2019-02-18T14:39:11.977Z,4.57
2019-02-18T14:44:41.246Z,6.90
2019-02-18T14:50:11.078Z,4.47
2019-02-18T14:55:40.412Z,3.40
2019-02-18T15:01:09.837Z,4.67
2019-02-18T15:06:39.268Z,11.67
2019-02-18T15:12:08.603Z,4.40
2019-02-18T15:17:38.199Z,8.23
2019-02-18T15:23:07.479Z,5.53
2019-02-18T15:28:36.838Z,4.77
2019-02-18T15:34:06.118Z,3.50
2019-02-18T15:39:35.503Z,4.20
2019-02-18T15:45:06.055Z,4.40
2019-02-18T15:50:35.334Z,5.83
2019-02-18T15:56:04.737Z,13.00
2019-02-18T16:01:35.671Z,13.23
2019-02-18T16:07:05.020Z,5.10
2019-02-18T16:12:34.323Z,7.40
2019-02-18T16:18:03.619Z,7.70
2019-02-18T16:23:32.925Z,7.27
2019-02-18T16:29:02.205Z,18.17
2019-02-18T16:34:31.873Z,7.57
2019-02-18T16:40:01.400Z,9.73
2019-02-18T16:45:30.687Z,7.77
2019-02-18T16:51:00.340Z,25.53
2019-02-18T16:56:29.644Z,16.23
2019-02-18T17:01:59.298Z,16.13
2019-02-18T17:07:28.563Z,16.73
2019-02-18T17:12:57.849Z,21.20
2019-02-18T17:18:27.166Z,18.97
2019-02-18T17:23:56.450Z,15.13
2019-02-18T17:29:27.401Z,26.17
2019-02-18T17:34:56.683Z,24.13
2019-02-18T17:40:25.943Z,24.70
2019-02-18T17:45:55.217Z,37.17
2019-02-18T17:51:24.484Z,26.73
2019-02-18T17:56:53.768Z,30.10
2019-02-18T18:02:23.047Z,19.17
2019-02-18T18:07:52.320Z,33.00
2019-02-18T18:13:29.028Z,39.50
2019-02-18T18:18:58.295Z,42.10
2019-02-18T18:24:27.567Z,36.53
2019-02-18T18:29:56.841Z,25.30
2019-02-18T18:35:26.113Z,37.20
2019-02-18T18:40:55.751Z,29.90
2019-02-18T18:46:25.026Z,28.57
2019-02-18T18:51:54.379Z,35.10
2019-02-18T18:57:23.683Z,29.53
2019-02-18T19:02:53.014Z,33.37
2019-02-18T19:08:22.763Z,35.87
2019-02-18T19:13:53.661Z,35.40
2019-02-18T19:19:23.084Z,37.60
2019-02-18T19:24:52.365Z,32.50
2019-02-18T19:30:31.119Z,34.93
2019-02-18T19:36:00.434Z,35.63
2019-02-18T19:41:30.049Z,26.50
2019-02-18T19:46:59.399Z,24.57
2019-02-18T19:52:28.703Z,36.10
2019-02-18T19:57:57.986Z,30.63
2019-02-18T20:03:27.294Z,32.50
2019-02-18T20:08:56.579Z,25.37
2019-02-18T20:14:25.860Z,31.13
2019-02-18T20:19:55.137Z,25.23
2019-02-18T20:25:24.425Z,26.70
2019-02-18T20:30:53.707Z,24.03
2019-02-18T20:36:22.970Z,19.90
2019-02-18T20:41:52.244Z,18.50
2019-02-18T20:47:21.629Z,15.50
2019-02-18T20:52:51.217Z,22.83
2019-02-18T20:58:20.820Z,18.10
2019-02-18T21:03:50.102Z,20.17
2019-02-18T21:09:19.393Z,29.10
2019-02-18T21:14:48.851Z,21.33
2019-02-18T21:20:18.217Z,19.10
2019-02-18T21:25:51.695Z,17.30
2019-02-18T21:31:20.912Z,20.83
2019-02-18T21:36:50.282Z,24.40
2019-02-18T21:42:19.967Z,26.07
2019-02-18T21:47:49.237Z,20.07
2019-02-18T21:53:18.791Z,25.47
2019-02-18T21:58:48.063Z,51.97
2019-02-18T22:04:18.063Z,11.30
2019-02-18T22:09:47.465Z,22.47
2019-02-18T22:15:17.441Z,14.30
2019-02-18T22:20:46.726Z,10.53
2019-02-18T22:26:16.001Z,12.60
2019-02-18T22:31:46.149Z,9.00
2019-02-18T22:37:15.421Z,13.90
2019-02-18T22:42:44.682Z,11.60
2019-02-18T22:48:13.951Z,13.43
2019-02-18T22:53:43.231Z,16.30
2019-02-18T22:59:12.495Z,15.40
2019-02-18T23:04:46.403Z,16.77
2019-02-18T23:10:15.675Z,12.13
2019-02-18T23:15:45.046Z,15.03
2019-02-18T23:21:14.363Z,15.23
2019-02-18T23:26:43.897Z,14.90
2019-02-18T23:32:13.169Z,12.70
2019-02-18T23:37:42.445Z,12.10
2019-02-18T23:43:11.786Z,15.83
2019-02-18T23:48:41.053Z,18.47
2019-02-18T23:54:10.316Z,17.80
2019-02-18T23:59:39.642Z,14.07
